Time;durP1;ratioP1;P1;durP2;ratioP2;P2;SDS_P1;SDS_P2;PMS_P1;PMS_P2;Temp;Humidity;BMP_temperature;BMP_pressure;BME280_temperature;BME280_humidity;BME280_pressure;Samples;Min_cycle;Max_cycle;Signal;HPM_P1;HPM_P2
2021/08/25 00:01:19;;;;;;;8.15;2.92;;;;;;;;;;5108489;28;20481;-79
2021/08/25 00:03:45;;;;;;;5.10;3.60;;;;;;;;;;5108603;28;20066;-78
2021/08/25 00:06:11;;;;;;;7.88;3.55;;;;;;;;;;5109413;28;20039;-78
2021/08/25 00:08:36;;;;;;;4.18;2.67;;;;;;;;;;5108897;28;20023;-79
2021/08/25 00:11:03;;;;;;;7.72;2.97;;;;;;;;;;5088265;28;20089;-78
2021/08/25 00:13:29;;;;;;;4.18;2.70;;;;;;;;;;5087337;28;20036;-78
2021/08/25 00:15:55;;;;;;;5.03;3.13;;;;;;;;;;5086133;28;20398;-78
2021/08/25 00:18:20;;;;;;;5.28;2.85;;;;;;;;;;5086700;28;20024;-78
2021/08/25 00:20:46;;;;;;;6.50;2.70;;;;;;;;;;5086654;28;20481;-78
2021/08/25 00:23:11;;;;;;;6.22;2.80;;;;;;;;;;5086563;28;20040;-78
2021/08/25 00:25:38;;;;;;;7.43;3.35;;;;;;;;;;5085804;28;20036;-78
2021/08/25 00:28:04;;;;;;;5.25;3.20;;;;;;;;;;5085486;28;20126;-78
2021/08/25 00:30:30;;;;;;;4.28;2.58;;;;;;;;;;5086013;28;20036;-78
2021/08/25 00:32:57;;;;;;;4.72;2.80;;;;;;;;;;5086053;28;20040;-78
2021/08/25 00:35:24;;;;;;;6.55;3.17;;;;;;;;;;5085568;28;20043;-78
2021/08/25 00:37:52;;;;;;;5.03;3.10;;;;;;;;;;5085169;28;20093;-78
2021/08/25 00:40:18;;;;;;;4.40;2.47;;;;;;;;;;5086054;28;20074;-78
2021/08/25 00:42:43;;;;;;;5.80;3.25;;;;;;;;;;5085377;28;20038;-78
2021/08/25 00:45:10;;;;;;;5.45;2.88;;;;;;;;;;5085024;28;20032;-78
2021/08/25 00:47:40;;;;;;;8.80;3.05;;;;;;;;;;5085775;28;20043;-78
2021/08/25 00:50:08;;;;;;;7.25;2.92;;;;;;;;;;5085082;28;20446;-78
2021/08/25 00:52:35;;;;;;;5.38;3.03;;;;;;;;;;5084495;28;20036;-78
2021/08/25 00:55:01;;;;;;;5.10;3.20;;;;;;;;;;5101762;28;20043;-78
2021/08/25 00:57:27;;;;;;;7.70;3.08;;;;;;;;;;5084270;28;20036;-77
2021/08/25 00:59:53;;;;;;;6.97;3.33;;;;;;;;;;5100560;28;20864;-77
2021/08/25 01:02:43;;;;;;;5.18;2.65;;;;;;;;;;5100977;28;20036;-78
2021/08/25 01:05:09;;;;;;;8.38;3.15;;;;;;;;;;5084760;28;20421;-78
2021/08/25 01:07:37;;;;;;;4.28;2.60;;;;;;;;;;5100052;28;20036;-79
2021/08/25 01:10:25;;;;;;;6.47;3.08;;;;;;;;;;5086490;28;20086;-78
2021/08/25 01:12:59;;;;;;;2.80;2.35;;;;;;;;;;5065073;28;20573;-78
2021/08/25 01:15:37;;;;;;;4.35;2.30;;;;;;;;;;5065519;28;20036;-78
2021/08/25 01:18:08;;;;;;;4.63;2.30;;;;;;;;;;5065157;28;20041;-78
2021/08/25 01:20:35;;;;;;;4.65;2.67;;;;;;;;;;5064752;28;20127;-78
2021/08/25 01:23:01;;;;;;;3.20;2.03;;;;;;;;;;5065152;28;20063;-78
2021/08/25 01:25:29;;;;;;;4.95;2.03;;;;;;;;;;5065145;28;20040;-78
2021/08/25 01:28:05;;;;;;;4.93;2.63;;;;;;;;;;5064830;28;20099;-78
2021/08/25 01:30:33;;;;;;;5.93;3.00;;;;;;;;;;5064379;28;20033;-78
2021/08/25 01:33:01;;;;;;;4.80;2.65;;;;;;;;;;5064297;28;20039;-78
2021/08/25 01:35:41;;;;;;;4.13;2.67;;;;;;;;;;5082478;28;20053;-79
2021/08/25 01:38:08;;;;;;;5.90;3.15;;;;;;;;;;5073080;28;20036;-78
2021/08/25 01:40:35;;;;;;;7.00;2.63;;;;;;;;;;5086294;28;20036;-79
2021/08/25 01:43:02;;;;;;;4.97;2.80;;;;;;;;;;5103600;28;20034;-79
2021/08/25 01:45:29;;;;;;;8.20;2.97;;;;;;;;;;5086777;28;20058;-78
2021/08/25 01:47:54;;;;;;;4.40;2.65;;;;;;;;;;5086243;28;20036;-78
2021/08/25 01:50:21;;;;;;;6.05;2.55;;;;;;;;;;5102707;28;20515;-78
2021/08/25 01:52:46;;;;;;;6.03;2.55;;;;;;;;;;5082554;28;20051;-78
2021/08/25 01:55:12;;;;;;;4.47;2.60;;;;;;;;;;5103124;28;20032;-79
2021/08/25 01:57:40;;;;;;;6.50;2.75;;;;;;;;;;5086695;28;20405;-79
2021/08/25 02:00:07;;;;;;;6.07;3.05;;;;;;;;;;5067955;28;20036;-78
2021/08/25 02:02:33;;;;;;;7.18;2.60;;;;;;;;;;5102851;28;20032;-78
2021/08/25 02:04:59;;;;;;;10.23;2.85;;;;;;;;;;5085047;28;20036;-78
2021/08/25 02:07:24;;;;;;;4.80;2.67;;;;;;;;;;5086852;28;20532;-78
2021/08/25 02:09:50;;;;;;;5.07;2.90;;;;;;;;;;5089285;28;20040;-78
2021/08/25 02:12:16;;;;;;;4.68;1.95;;;;;;;;;;5089190;28;20046;-78
2021/08/25 02:14:41;;;;;;;6.15;2.30;;;;;;;;;;5090433;28;20042;-78
2021/08/25 02:17:07;;;;;;;5.47;2.20;;;;;;;;;;5090973;28;20067;-78
2021/08/25 02:19:33;;;;;;;4.53;2.33;;;;;;;;;;5107761;28;20035;-78
2021/08/25 02:21:59;;;;;;;6.53;2.65;;;;;;;;;;5108505;28;20032;-78
2021/08/25 02:24:25;;;;;;;4.93;2.78;;;;;;;;;;5089654;28;20098;-79
2021/08/25 02:26:51;;;;;;;5.03;2.67;;;;;;;;;;5091358;28;20032;-78
2021/08/25 02:29:17;;;;;;;6.57;2.80;;;;;;;;;;5089435;28;20050;-78
2021/08/25 02:31:42;;;;;;;5.50;2.83;;;;;;;;;;5089576;28;20027;-78
2021/08/25 02:34:07;;;;;;;4.32;2.50;;;;;;;;;;5106565;28;20036;-78
2021/08/25 02:36:34;;;;;;;5.35;1.92;;;;;;;;;;5106639;28;20036;-78
2021/08/25 02:39:00;;;;;;;4.65;2.47;;;;;;;;;;5089113;28;20036;-78
2021/08/25 02:41:25;;;;;;;4.55;2.92;;;;;;;;;;5091262;28;20126;-78
2021/08/25 02:43:51;;;;;;;5.25;2.67;;;;;;;;;;5091583;28;20032;-78
2021/08/25 02:46:17;;;;;;;6.15;2.00;;;;;;;;;;5090278;28;20028;-78
2021/08/25 02:48:43;;;;;;;5.75;2.03;;;;;;;;;;5090961;28;20104;-78
2021/08/25 02:51:09;;;;;;;4.88;2.53;;;;;;;;;;5107743;28;20044;-78
2021/08/25 02:53:35;;;;;;;6.40;2.50;;;;;;;;;;5090361;28;20043;-79
2021/08/25 02:56:00;;;;;;;7.00;3.10;;;;;;;;;;5106305;28;20028;-78
2021/08/25 02:58:26;;;;;;;4.30;2.78;;;;;;;;;;5105246;28;20089;-78
2021/08/25 03:00:51;;;;;;;7.95;3.30;;;;;;;;;;5089015;28;20104;-78
2021/08/25 03:03:17;;;;;;;4.75;2.65;;;;;;;;;;5105851;28;20055;-78
2021/08/25 03:05:44;;;;;;;4.80;3.20;;;;;;;;;;5087565;28;20039;-78
2021/08/25 03:08:09;;;;;;;7.05;2.40;;;;;;;;;;5088225;28;20036;-78
2021/08/25 03:10:36;;;;;;;5.03;2.88;;;;;;;;;;5088495;28;20130;-78
2021/08/25 03:13:02;;;;;;;7.00;3.25;;;;;;;;;;5088359;28;20032;-78
2021/08/25 03:15:28;;;;;;;5.68;3.40;;;;;;;;;;5105554;28;20024;-78
2021/08/25 03:17:54;;;;;;;6.95;3.65;;;;;;;;;;5087609;28;20061;-78
2021/08/25 03:20:19;;;;;;;8.70;4.60;;;;;;;;;;5086588;28;20127;-78
2021/08/25 03:22:44;;;;;;;10.20;4.78;;;;;;;;;;5104355;28;20086;-78
2021/08/25 03:25:10;;;;;;;6.72;4.00;;;;;;;;;;5104696;28;20040;-78
2021/08/25 03:27:36;;;;;;;10.52;3.92;;;;;;;;;;5088720;28;20040;-78
2021/08/25 03:30:03;;;;;;;10.18;4.28;;;;;;;;;;5105832;28;20032;-79
2021/08/25 03:32:28;;;;;;;15.10;5.00;;;;;;;;;;5105162;28;20032;-78
2021/08/25 03:34:54;;;;;;;9.43;4.35;;;;;;;;;;5088365;28;20447;-78
2021/08/25 03:37:19;;;;;;;11.32;4.32;;;;;;;;;;5103182;28;20040;-78
2021/08/25 03:39:45;;;;;;;9.98;4.72;;;;;;;;;;5104093;28;20036;-78
2021/08/25 03:42:10;;;;;;;16.60;4.53;;;;;;;;;;5105113;28;20032;-78
2021/08/25 03:44:40;;;;;;;10.77;4.40;;;;;;;;;;5105726;28;20040;-78
2021/08/25 03:47:06;;;;;;;16.23;4.50;;;;;;;;;;5105943;28;20389;-78
2021/08/25 03:49:33;;;;;;;12.85;5.57;;;;;;;;;;5087880;28;20042;-78
2021/08/25 03:51:59;;;;;;;27.48;7.57;;;;;;;;;;5088193;28;20032;-79
2021/08/25 03:54:25;;;;;;;26.63;5.63;;;;;;;;;;5086889;28;20047;-78
2021/08/25 03:56:51;;;;;;;20.42;5.55;;;;;;;;;;5088831;28;20028;-78
2021/08/25 03:59:16;;;;;;;13.82;4.82;;;;;;;;;;5104010;28;20047;-78
2021/08/25 04:01:42;;;;;;;9.73;5.72;;;;;;;;;;5104965;28;20039;-78
2021/08/25 04:04:08;;;;;;;6.97;4.50;;;;;;;;;;5104147;28;20047;-78
2021/08/25 04:06:38;;;;;;;10.45;5.30;;;;;;;;;;5103064;28;20039;-78
2021/08/25 04:09:04;;;;;;;11.05;5.28;;;;;;;;;;5092061;28;20090;-78
2021/08/25 04:11:31;;;;;;;15.00;5.35;;;;;;;;;;5064661;28;20029;-79
2021/08/25 04:13:57;;;;;;;9.77;4.85;;;;;;;;;;5070248;28;20031;-79
2021/08/25 04:16:23;;;;;;;7.57;5.05;;;;;;;;;;5066821;28;20028;-79
2021/08/25 04:18:48;;;;;;;7.32;4.90;;;;;;;;;;5068320;28;20036;-79
2021/08/25 04:21:14;;;;;;;15.95;5.72;;;;;;;;;;5068116;28;20036;-79
2021/08/25 04:23:39;;;;;;;9.85;5.03;;;;;;;;;;5067945;28;20043;-78
2021/08/25 04:26:06;;;;;;;8.25;4.68;;;;;;;;;;5067626;28;20063;-78
2021/08/25 04:28:32;;;;;;;9.38;4.85;;;;;;;;;;5068516;28;20055;-78
2021/08/25 04:30:58;;;;;;;11.82;4.80;;;;;;;;;;5085782;28;20060;-78
2021/08/25 04:33:24;;;;;;;11.50;5.15;;;;;;;;;;5069940;28;20039;-78
2021/08/25 04:35:51;;;;;;;9.45;4.70;;;;;;;;;;5087976;28;20135;-78
2021/08/25 04:38:17;;;;;;;9.00;5.10;;;;;;;;;;5073190;28;20040;-79
2021/08/25 04:40:43;;;;;;;10.45;5.10;;;;;;;;;;5090013;28;20097;-78
2021/08/25 04:43:08;;;;;;;9.63;5.60;;;;;;;;;;5106612;28;20036;-78
2021/08/25 04:45:37;;;;;;;8.82;4.85;;;;;;;;;;5089147;28;20058;-79
2021/08/25 04:48:02;;;;;;;8.13;4.68;;;;;;;;;;5090465;28;20036;-79
2021/08/25 04:50:28;;;;;;;10.85;5.35;;;;;;;;;;5089841;28;20036;-80
2021/08/25 04:52:53;;;;;;;18.45;5.60;;;;;;;;;;5087952;28;20040;-80
2021/08/25 04:55:19;;;;;;;18.73;5.65;;;;;;;;;;5108696;28;20043;-79
2021/08/25 04:57:44;;;;;;;8.65;5.50;;;;;;;;;;5089425;28;20043;-79
2021/08/25 05:00:11;;;;;;;6.18;4.30;;;;;;;;;;5097737;28;20131;-78
2021/08/25 05:02:36;;;;;;;10.90;4.93;;;;;;;;;;5098228;28;20036;-82
2021/08/25 05:05:02;;;;;;;7.45;4.30;;;;;;;;;;5099957;28;20046;-78
2021/08/25 05:07:28;;;;;;;13.85;5.88;;;;;;;;;;5093806;28;20024;-77
2021/08/25 05:09:53;;;;;;;8.00;5.10;;;;;;;;;;5060604;28;20051;-77
2021/08/25 05:12:19;;;;;;;9.60;5.93;;;;;;;;;;5055676;28;20032;-76
2021/08/25 05:14:44;;;;;;;10.73;5.88;;;;;;;;;;5055455;28;20039;-76
2021/08/25 05:17:10;;;;;;;8.63;5.60;;;;;;;;;;5072245;28;20497;-76
2021/08/25 05:19:35;;;;;;;9.38;4.90;;;;;;;;;;5055361;28;20131;-75
2021/08/25 05:22:01;;;;;;;9.43;5.28;;;;;;;;;;5073942;28;20040;-78
2021/08/25 05:24:29;;;;;;;9.32;4.85;;;;;;;;;;5076435;28;20032;-80
2021/08/25 05:26:55;;;;;;;10.98;5.38;;;;;;;;;;5057812;28;20067;-78
2021/08/25 05:29:21;;;;;;;11.43;5.68;;;;;;;;;;5055489;28;20036;-77
2021/08/25 05:31:47;;;;;;;8.43;5.30;;;;;;;;;;5074263;28;20390;-78
2021/08/25 05:34:12;;;;;;;8.68;4.97;;;;;;;;;;5073436;28;20043;-78
2021/08/25 05:36:39;;;;;;;8.05;4.85;;;;;;;;;;5072117;28;20039;-78
2021/08/25 05:39:05;;;;;;;48.28;5.68;;;;;;;;;;5071317;28;20127;-76
2021/08/25 05:41:30;;;;;;;26.67;5.55;;;;;;;;;;5071550;28;20075;-77
2021/08/25 05:43:55;;;;;;;21.40;4.70;;;;;;;;;;5054421;28;20037;-76
2021/08/25 05:46:21;;;;;;;10.32;5.78;;;;;;;;;;5071803;28;20039;-78
2021/08/25 05:48:46;;;;;;;26.83;6.30;;;;;;;;;;5071551;28;20046;-78
2021/08/25 05:51:15;;;;;;;17.90;6.00;;;;;;;;;;5053875;28;20037;-76
2021/08/25 05:53:40;;;;;;;11.25;4.55;;;;;;;;;;5054159;28;20040;-76
2021/08/25 05:56:05;;;;;;;26.55;5.35;;;;;;;;;;5053916;28;20032;-76
2021/08/25 05:58:31;;;;;;;8.73;5.25;;;;;;;;;;5071695;28;20089;-76
2021/08/25 06:00:56;;;;;;;17.13;5.53;;;;;;;;;;5071739;28;20397;-76
2021/08/25 06:03:21;;;;;;;22.20;6.18;;;;;;;;;;5055910;28;20474;-77
2021/08/25 06:05:51;;;;;;;56.40;6.70;;;;;;;;;;5071780;28;20702;-76
2021/08/25 06:08:16;;;;;;;105.93;5.82;;;;;;;;;;5068007;28;20118;-79
2021/08/25 06:10:42;;;;;;;13.90;5.60;;;;;;;;;;5077191;28;20117;-78
2021/08/25 06:13:07;;;;;;;12.98;5.72;;;;;;;;;;5094316;28;20405;-78
2021/08/25 06:15:33;;;;;;;68.80;6.65;;;;;;;;;;5094878;28;20096;-79
2021/08/25 06:17:59;;;;;;;11.55;5.45;;;;;;;;;;5076602;28;20028;-79
2021/08/25 06:20:25;;;;;;;22.58;5.07;;;;;;;;;;5100006;28;20043;-78
2021/08/25 06:22:50;;;;;;;19.08;5.38;;;;;;;;;;5101415;28;20118;-79
2021/08/25 06:25:16;;;;;;;30.60;6.15;;;;;;;;;;5083511;28;20036;-79
2021/08/25 06:27:41;;;;;;;65.22;5.60;;;;;;;;;;5101426;28;20070;-79
2021/08/25 06:30:07;;;;;;;59.78;5.40;;;;;;;;;;5085072;28;20489;-79
2021/08/25 06:32:33;;;;;;;8.65;4.20;;;;;;;;;;5084492;28;20028;-79
2021/08/25 06:34:58;;;;;;;9.98;4.82;;;;;;;;;;5086040;28;20142;-80
2021/08/25 06:37:24;;;;;;;55.00;4.80;;;;;;;;;;5085341;28;20040;-79
2021/08/25 06:39:49;;;;;;;25.17;5.22;;;;;;;;;;5084418;28;20076;-79
2021/08/25 06:42:15;;;;;;;8.18;4.82;;;;;;;;;;5089177;28;20036;-79
2021/08/25 06:44:40;;;;;;;83.88;6.03;;;;;;;;;;5106042;28;20038;-79
2021/08/25 06:47:05;;;;;;;6.85;5.18;;;;;;;;;;5106436;28;20039;-79
2021/08/25 06:49:32;;;;;;;5.82;4.57;;;;;;;;;;5104997;28;20043;-79
2021/08/25 06:51:57;;;;;;;8.25;4.57;;;;;;;;;;5085234;28;20031;-81
2021/08/25 06:54:23;;;;;;;5.68;4.28;;;;;;;;;;5100958;28;20042;-79
2021/08/25 06:56:49;;;;;;;8.55;4.63;;;;;;;;;;5087368;28;20065;-79
2021/08/25 06:59:14;;;;;;;6.90;4.05;;;;;;;;;;5090633;28;20098;-78
2021/08/25 07:01:39;;;;;;;7.70;4.63;;;;;;;;;;5082238;28;20465;-78
2021/08/25 07:04:05;;;;;;;6.15;4.20;;;;;;;;;;5100826;28;20035;-78
2021/08/25 07:06:31;;;;;;;6.22;4.22;;;;;;;;;;5106776;28;20028;-79
2021/08/25 07:08:56;;;;;;;7.35;4.90;;;;;;;;;;5087177;28;20241;-79
2021/08/25 07:11:22;;;;;;;7.10;4.47;;;;;;;;;;5103320;28;20039;-78
2021/08/25 07:13:47;;;;;;;5.72;4.28;;;;;;;;;;5081535;28;20028;-79
2021/08/25 07:16:16;;;;;;;6.22;4.30;;;;;;;;;;5080875;28;20039;-79
2021/08/25 07:18:43;;;;;;;7.53;5.13;;;;;;;;;;5080025;28;20496;-77
2021/08/25 07:21:13;;;;;;;6.80;4.82;;;;;;;;;;5095919;28;20043;-77
2021/08/25 07:23:38;;;;;;;6.40;4.97;;;;;;;;;;5077971;28;20032;-76
2021/08/25 07:26:04;;;;;;;6.78;4.35;;;;;;;;;;5077597;28;20043;-76
2021/08/25 07:28:29;;;;;;;6.47;4.53;;;;;;;;;;5094170;28;20416;-78
2021/08/25 07:30:56;;;;;;;7.45;5.28;;;;;;;;;;5076902;28;20042;-79
2021/08/25 07:33:22;;;;;;;7.80;4.90;;;;;;;;;;5094164;28;20040;-77
2021/08/25 07:35:48;;;;;;;6.63;4.68;;;;;;;;;;5077767;28;20141;-77
2021/08/25 07:38:17;;;;;;;9.02;5.47;;;;;;;;;;5094873;28;20035;-77
2021/08/25 07:40:43;;;;;;;6.40;4.53;;;;;;;;;;5094624;28;20035;-76
2021/08/25 07:43:08;;;;;;;7.25;4.88;;;;;;;;;;5095868;28;20036;-79
2021/08/25 07:45:36;;;;;;;6.60;4.40;;;;;;;;;;5094612;28;20105;-78
2021/08/25 07:48:01;;;;;;;6.55;4.35;;;;;;;;;;5094868;28;20477;-77
2021/08/25 07:50:27;;;;;;;7.95;5.00;;;;;;;;;;5077143;28;20036;-79
2021/08/25 07:52:54;;;;;;;6.80;4.35;;;;;;;;;;5094923;28;20032;-78
2021/08/25 07:55:19;;;;;;;8.93;4.40;;;;;;;;;;5097494;28;20036;-78
2021/08/25 07:57:45;;;;;;;6.40;4.50;;;;;;;;;;5085082;28;20027;-79
2021/08/25 08:00:11;;;;;;;8.00;3.88;;;;;;;;;;5086270;28;20040;-79
2021/08/25 08:02:36;;;;;;;5.85;4.20;;;;;;;;;;5095110;28;20086;-78
2021/08/25 08:05:04;;;;;;;5.28;4.15;;;;;;;;;;5096486;28;20509;-79
2021/08/25 08:07:30;;;;;;;8.07;5.03;;;;;;;;;;5098599;28;20039;-78
2021/08/25 08:09:55;;;;;;;10.32;4.38;;;;;;;;;;5059732;28;20481;-78
2021/08/25 08:12:21;;;;;;;7.82;4.05;;;;;;;;;;5073698;28;20098;-80
2021/08/25 08:14:47;;;;;;;5.38;3.88;;;;;;;;;;5097807;28;20043;-79
2021/08/25 08:17:13;;;;;;;5.75;3.55;;;;;;;;;;5079358;28;20036;-79
2021/08/25 08:19:38;;;;;;;7.28;4.53;;;;;;;;;;5096891;28;20036;-79
2021/08/25 08:22:04;;;;;;;4.85;3.65;;;;;;;;;;5097880;28;20387;-80
2021/08/25 08:24:30;;;;;;;5.28;3.95;;;;;;;;;;5080862;28;20036;-80
2021/08/25 08:26:56;;;;;;;7.20;4.35;;;;;;;;;;5098654;28;20039;-80
2021/08/25 08:29:22;;;;;;;5.20;3.47;;;;;;;;;;5081372;28;20036;-80
2021/08/25 08:31:47;;;;;;;6.07;3.92;;;;;;;;;;5083381;28;20405;-80
2021/08/25 08:34:13;;;;;;;6.35;3.42;;;;;;;;;;5081726;28;20036;-80
2021/08/25 08:36:38;;;;;;;7.55;4.00;;;;;;;;;;5098945;28;20099;-79
2021/08/25 08:39:04;;;;;;;7.03;3.90;;;;;;;;;;5081152;28;20032;-80
2021/08/25 08:41:30;;;;;;;6.15;3.92;;;;;;;;;;5080615;28;20063;-81
2021/08/25 08:43:56;;;;;;;6.43;3.60;;;;;;;;;;5098705;28;20046;-80
2021/08/25 08:46:23;;;;;;;5.80;3.38;;;;;;;;;;5081962;28;20055;-79
2021/08/25 08:48:51;;;;;;;7.53;3.75;;;;;;;;;;5099378;28;20031;-79
2021/08/25 08:51:21;;;;;;;9.57;4.13;;;;;;;;;;5083049;28;20051;-79
2021/08/25 08:53:47;;;;;;;6.10;3.47;;;;;;;;;;5099464;27;20109;-80
2021/08/25 08:56:13;;;;;;;7.03;3.58;;;;;;;;;;5100256;28;20367;-80
2021/08/25 08:58:39;;;;;;;7.15;4.10;;;;;;;;;;5099309;28;20020;-79
2021/08/25 09:01:05;;;;;;;6.18;3.88;;;;;;;;;;5099405;28;20105;-81
2021/08/25 09:03:34;;;;;;;6.22;3.92;;;;;;;;;;5083479;28;20036;-79
2021/08/25 09:06:00;;;;;;;7.78;4.20;;;;;;;;;;5101690;28;20032;-79
2021/08/25 09:08:29;;;;;;;7.53;4.05;;;;;;;;;;5082334;28;20103;-81
2021/08/25 09:11:11;;;;;;;6.78;3.67;;;;;;;;;;5083629;28;20036;-81
2021/08/25 09:13:47;;;;;;;7.13;4.13;;;;;;;;;;5066304;28;20489;-79
2021/08/25 09:16:23;;;;;;;;;;;;;;;;;;5100969;28;20067;-79
2021/08/25 09:18:59;;;;;;;6.95;3.78;;;;;;;;;;5098890;28;19919;-79
2021/08/25 09:21:39;;;;;;;5.45;3.35;;;;;;;;;;5098036;28;20068;-80
2021/08/25 09:24:06;;;;;;;6.53;4.18;;;;;;;;;;5097057;28;20443;-79
2021/08/25 09:26:33;;;;;;;5.80;3.80;;;;;;;;;;5101654;28;20040;-82
2021/08/25 09:29:15;;;;;;;6.75;3.90;;;;;;;;;;5099362;28;20058;-80
2021/08/25 09:31:45;;;;;;;8.02;3.40;;;;;;;;;;5097264;28;20032;-81
2021/08/25 09:34:32;;;;;;;7.45;3.67;;;;;;;;;;5082903;28;20078;-81
2021/08/25 09:37:15;;;;;;;8.38;3.78;;;;;;;;;;5084414;28;20040;-83
2021/08/25 09:39:46;;;;;;;5.80;3.42;;;;;;;;;;5073469;28;20071;-79
2021/08/25 09:42:13;;;;;;;6.53;3.92;;;;;;;;;;5125443;28;20434;-80
2021/08/25 09:44:39;;;;;;;11.25;3.30;;;;;;;;;;5121871;28;20041;-80
2021/08/25 09:47:05;;;;;;;6.40;3.58;;;;;;;;;;5122333;28;20130;-79
2021/08/25 09:49:35;;;;;;;5.05;3.92;;;;;;;;;;5106443;28;20027;-79
2021/08/25 09:52:01;;;;;;;9.45;3.88;;;;;;;;;;5106941;28;20031;-79
2021/08/25 09:54:26;;;;;;;5.28;2.92;;;;;;;;;;5106814;28;20074;-80
2021/08/25 09:56:53;;;;;;;7.65;3.30;;;;;;;;;;5105503;28;20032;-80
2021/08/25 09:59:19;;;;;;;5.15;3.40;;;;;;;;;;5122322;28;20032;-81
2021/08/25 10:01:45;;;;;;;7.30;3.38;;;;;;;;;;5119161;28;20039;-80
2021/08/25 10:04:14;;;;;;;7.18;3.45;;;;;;;;;;5122325;28;20039;-79
2021/08/25 10:06:43;;;;;;;4.30;2.85;;;;;;;;;;5104977;28;20408;-80
2021/08/25 10:09:10;;;;;;;4.60;3.25;;;;;;;;;;5104586;28;20059;-80
2021/08/25 10:11:39;;;;;;;6.68;3.05;;;;;;;;;;5104016;28;20028;-80
2021/08/25 10:14:23;;;;;;;4.82;2.78;;;;;;;;;;5073345;28;20047;-80
2021/08/25 10:16:52;;;;;;;5.00;3.53;;;;;;;;;;5068949;28;20088;-80
2021/08/25 10:19:26;;;;;;;4.22;2.75;;;;;;;;;;5085258;28;20063;-80
2021/08/25 10:21:54;;;;;;;9.20;3.47;;;;;;;;;;5085261;28;20079;-80
2021/08/25 10:24:19;;;;;;;5.50;2.92;;;;;;;;;;5084682;28;20036;-80
2021/08/25 10:27:11;;;;;;;5.43;3.20;;;;;;;;;;5086106;28;20112;-80
2021/08/25 10:30:06;;;;;;;4.43;3.05;;;;;;;;;;5066914;28;20040;-80
2021/08/25 10:32:32;;;;;;;5.60;3.10;;;;;;;;;;5066146;28;20035;-80
2021/08/25 10:35:13;;;;;;;4.18;2.90;;;;;;;;;;5085126;28;20044;-80
2021/08/25 10:37:40;;;;;;;4.55;2.88;;;;;;;;;;5084438;28;20043;-80
2021/08/25 10:40:07;;;;;;;5.57;3.63;;;;;;;;;;5097613;28;20032;-80
2021/08/25 10:42:54;;;;;;;4.43;2.97;;;;;;;;;;5085800;28;20040;-80
2021/08/25 10:45:38;;;;;;;4.47;2.63;;;;;;;;;;5085126;28;20028;-80
2021/08/25 10:48:04;;;;;;;3.78;2.38;;;;;;;;;;5086002;28;20082;-80
2021/08/25 10:50:48;;;;;;;4.43;2.83;;;;;;;;;;5081394;28;20032;-80
2021/08/25 10:53:29;;;;;;;7.30;3.33;;;;;;;;;;5083535;28;20057;-80
2021/08/25 10:56:20;;;;;;;6.20;3.05;;;;;;;;;;5068470;28;20623;-79
2021/08/25 10:58:55;;;;;;;8.88;3.03;;;;;;;;;;5085306;28;20037;-80
2021/08/25 11:01:40;;;;;;;;;;;;;;;;;;5069579;28;20389;-79
2021/08/25 11:04:11;;;;;;;9.77;3.00;;;;;;;;;;5069536;28;19956;-79
2021/08/25 11:07:05;;;;;;;6.95;3.05;;;;;;;;;;5069379;28;20043;-79
2021/08/25 11:09:31;;;;;;;5.93;3.15;;;;;;;;;;5082646;28;20037;-78
2021/08/25 11:12:11;;;;;;;7.47;2.92;;;;;;;;;;5082396;28;20036;-78
2021/08/25 11:14:40;;;;;;;11.10;4.00;;;;;;;;;;5080057;28;20080;-77
2021/08/25 11:17:11;;;;;;;7.43;3.20;;;;;;;;;;5078499;28;20032;-77
2021/08/25 11:19:40;;;;;;;4.05;2.88;;;;;;;;;;5078741;28;20131;-77
2021/08/25 11:22:07;;;;;;;5.80;3.17;;;;;;;;;;5079222;28;20078;-79
2021/08/25 11:24:35;;;;;;;4.93;2.97;;;;;;;;;;5059644;28;20028;-77
2021/08/25 11:27:01;;;;;;;7.05;3.58;;;;;;;;;;5076856;28;20044;-77
2021/08/25 11:29:26;;;;;;;4.30;3.08;;;;;;;;;;5060978;28;20042;-77
2021/08/25 11:31:53;;;;;;;5.78;3.65;;;;;;;;;;5077302;28;20085;-77
2021/08/25 11:34:21;;;;;;;5.40;3.58;;;;;;;;;;5077256;28;20036;-76
2021/08/25 11:36:58;;;;;;;7.55;3.25;;;;;;;;;;5060222;28;20037;-77
2021/08/25 11:39:24;;;;;;;5.82;3.30;;;;;;;;;;5079639;28;20037;-77
2021/08/25 11:41:50;;;;;;;7.45;3.63;;;;;;;;;;5093271;28;20040;-78
2021/08/25 11:44:37;;;;;;;6.93;4.03;;;;;;;;;;5106451;28;20547;-79
2021/08/25 11:47:14;;;;;;;7.57;3.42;;;;;;;;;;5107687;28;20035;-78
2021/08/25 11:49:40;;;;;;;6.80;3.72;;;;;;;;;;5086189;28;20065;-78
2021/08/25 11:52:08;;;;;;;12.05;4.47;;;;;;;;;;5101061;28;20035;-78
2021/08/25 11:54:34;;;;;;;6.93;3.70;;;;;;;;;;5100855;28;20036;-78
2021/08/25 11:57:00;;;;;;;9.88;3.35;;;;;;;;;;5101194;28;20394;-77
2021/08/25 11:59:25;;;;;;;9.80;4.38;;;;;;;;;;5099718;28;20127;-77
2021/08/25 12:02:05;;;;;;;9.20;3.90;;;;;;;;;;5101214;28;20028;-77
2021/08/25 12:04:31;;;;;;;5.28;3.42;;;;;;;;;;5082208;28;20035;-77
2021/08/25 12:06:57;;;;;;;8.35;3.40;;;;;;;;;;5081699;28;20044;-77
2021/08/25 12:09:35;;;;;;;8.35;3.17;;;;;;;;;;5099666;28;20040;-77
2021/08/25 12:12:01;;;;;;;15.73;5.22;;;;;;;;;;5114745;28;20065;-79
2021/08/25 12:14:26;;;;;;;10.23;5.20;;;;;;;;;;5123907;28;20092;-79
2021/08/25 12:17:03;;;;;;;7.22;3.50;;;;;;;;;;5105943;28;20038;-79
2021/08/25 12:19:29;;;;;;;9.52;3.70;;;;;;;;;;5106875;28;20036;-79
2021/08/25 12:21:54;;;;;;;6.53;3.15;;;;;;;;;;5123257;28;20046;-79
2021/08/25 12:24:20;;;;;;;6.45;3.50;;;;;;;;;;5107404;28;20024;-78
2021/08/25 12:26:54;;;;;;;7.00;3.40;;;;;;;;;;5107371;28;20061;-79
2021/08/25 12:29:30;;;;;;;5.82;3.28;;;;;;;;;;5127422;27;20035;-79
2021/08/25 12:31:59;;;;;;;5.07;3.40;;;;;;;;;;5112806;28;20487;-79
2021/08/25 12:34:25;;;;;;;6.20;3.78;;;;;;;;;;5126669;28;20039;-79
2021/08/25 12:36:56;;;;;;;6.75;3.13;;;;;;;;;;5108005;28;20036;-79
2021/08/25 12:39:27;;;;;;;8.18;3.42;;;;;;;;;;5124782;28;20054;-79
2021/08/25 12:41:57;;;;;;;4.30;2.90;;;;;;;;;;5126391;28;20092;-79
2021/08/25 12:44:24;;;;;;;7.72;3.90;;;;;;;;;;5126624;28;20032;-80
2021/08/25 12:46:54;;;;;;;4.80;3.10;;;;;;;;;;5126241;28;20046;-79
2021/08/25 12:49:21;;;;;;;4.68;3.10;;;;;;;;;;5126341;28;20039;-79
2021/08/25 12:51:46;;;;;;;5.05;3.00;;;;;;;;;;5109501;28;20040;-80
2021/08/25 12:54:12;;;;;;;6.22;3.30;;;;;;;;;;5125151;28;20047;-80
2021/08/25 12:56:37;;;;;;;4.57;3.33;;;;;;;;;;5108202;28;20042;-79
2021/08/25 12:59:03;;;;;;;4.72;2.95;;;;;;;;;;5108119;28;20119;-79
2021/08/25 13:01:28;;;;;;;6.38;3.75;;;;;;;;;;5126348;28;20042;-79
2021/08/25 13:03:54;;;;;;;4.72;3.30;;;;;;;;;;5106969;28;20126;-79
2021/08/25 13:06:19;;;;;;;4.78;3.58;;;;;;;;;;5107238;28;20046;-79
2021/08/25 13:08:45;;;;;;;6.65;3.42;;;;;;;;;;5118292;28;20036;-79
2021/08/25 13:11:11;;;;;;;9.75;3.20;;;;;;;;;;5110956;28;20043;-79
2021/08/25 13:13:37;;;;;;;5.35;3.63;;;;;;;;;;5107166;28;20031;-79
2021/08/25 13:16:03;;;;;;;5.45;3.80;;;;;;;;;;5121784;28;20416;-79
2021/08/25 13:18:29;;;;;;;6.00;3.17;;;;;;;;;;5124019;28;20100;-79
2021/08/25 13:20:54;;;;;;;11.82;3.63;;;;;;;;;;5122576;28;20031;-79
2021/08/25 13:23:20;;;;;;;10.15;4.07;;;;;;;;;;5123463;28;20045;-79
2021/08/25 13:25:46;;;;;;;10.65;7.30;;;;;;;;;;5105763;28;20469;-78
2021/08/25 13:28:12;;;;;;;8.15;5.43;;;;;;;;;;5104948;28;20100;-79
2021/08/25 13:30:37;;;;;;;6.13;3.72;;;;;;;;;;5103284;28;20038;-78
2021/08/25 13:33:04;;;;;;;5.53;3.63;;;;;;;;;;5104672;28;20036;-78
2021/08/25 13:35:30;;;;;;;9.48;3.55;;;;;;;;;;5104133;28;20065;-80
2021/08/25 13:37:55;;;;;;;9.00;3.60;;;;;;;;;;5123627;28;20024;-79
2021/08/25 13:40:21;;;;;;;7.22;3.95;;;;;;;;;;5093129;28;20036;-79
2021/08/25 13:42:47;;;;;;;8.73;4.22;;;;;;;;;;5103464;28;20040;-79
2021/08/25 13:45:12;;;;;;;7.50;4.15;;;;;;;;;;5085076;28;20516;-81
2021/08/25 13:47:38;;;;;;;5.57;4.10;;;;;;;;;;5103670;28;20032;-79
2021/08/25 13:50:05;;;;;;;8.07;3.90;;;;;;;;;;5104894;28;20039;-80
2021/08/25 13:52:30;;;;;;;5.43;3.97;;;;;;;;;;5106441;28;20036;-80
2021/08/25 13:54:55;;;;;;;9.85;3.72;;;;;;;;;;5104994;28;20042;-80
2021/08/25 13:57:21;;;;;;;5.72;3.65;;;;;;;;;;5088209;28;20024;-80
2021/08/25 13:59:48;;;;;;;5.28;3.50;;;;;;;;;;5106171;28;20047;-80
2021/08/25 14:02:13;;;;;;;6.85;3.90;;;;;;;;;;5088406;28;20042;-79
2021/08/25 14:04:38;;;;;;;9.63;5.13;;;;;;;;;;5106043;28;20039;-80
2021/08/25 14:07:04;;;;;;;8.27;4.05;;;;;;;;;;5087669;28;20028;-80
2021/08/25 14:09:29;;;;;;;7.97;3.83;;;;;;;;;;5106551;28;20039;-79
2021/08/25 14:11:55;;;;;;;9.15;3.92;;;;;;;;;;5124046;28;20039;-80
2021/08/25 14:14:21;;;;;;;8.98;4.07;;;;;;;;;;5124929;28;20034;-80
2021/08/25 14:16:46;;;;;;;9.38;3.85;;;;;;;;;;5106265;28;20036;-80
2021/08/25 14:19:12;;;;;;;9.40;3.75;;;;;;;;;;5122839;28;20028;-81
2021/08/25 14:21:37;;;;;;;7.28;3.83;;;;;;;;;;5122365;28;20081;-80
2021/08/25 14:24:03;;;;;;;10.02;3.88;;;;;;;;;;5117777;28;20043;-79
2021/08/25 14:26:30;;;;;;;6.68;3.85;;;;;;;;;;5076031;28;20047;-78
2021/08/25 14:28:56;;;;;;;11.45;4.72;;;;;;;;;;5089287;28;20047;-79
2021/08/25 14:31:21;;;;;;;8.90;4.40;;;;;;;;;;5102346;28;20039;-79
2021/08/25 14:33:47;;;;;;;10.50;5.03;;;;;;;;;;5102161;28;20032;-79
2021/08/25 14:36:12;;;;;;;6.32;4.28;;;;;;;;;;5089479;28;20033;-79
2021/08/25 14:38:39;;;;;;;10.40;4.50;;;;;;;;;;5088978;28;20043;-79
2021/08/25 14:41:04;;;;;;;6.85;3.55;;;;;;;;;;5081440;28;20047;-80
2021/08/25 14:43:30;;;;;;;9.55;3.75;;;;;;;;;;5102489;28;20039;-80